Terminal Aerodrome Forecast
Issued by NWS

Home | Current Version | Previous Version | Text Only | Print | Product List | Glossary On
Versions: 1 2 3 4 5 6 7 8 9 10 11 12 13 14 15 16 17 18 19 20
000
FTUS42 KRAH 060907 AAA
TAFRWI
TAF AMD
KRWI 060907Z 0609/0706 07006KT P6SM -RA BKN050 OVC100
      TEMPO 0610/0612 3SM -RA BR OVC015
     FM061200 06012G18KT 3SM -RA BR OVC008
     FM061500 07012G18KT 1 1/2SM -RA BR OVC004
     FM062100 04005KT 2SM -DZ BR OVC004
     FM070000 34003KT 1SM BR OVC004=

USA.gov is the U.S. government's official web portal to all federal, state and local government web resources and services.